Time;durP1;ratioP1;P1;durP2;ratioP2;P2;SDS_P1;SDS_P2;PMS_P1;PMS_P2;Temp;Humidity;BMP_temperature;BMP_pressure;BME280_temperature;BME280_humidity;BME280_pressure;Samples;Min_cycle;Max_cycle;Signal;HPM_P1;HPM_P2
2022/05/08 00:02:16;;;;;;;16.73;10.23;;;;;;;;;;5028278;28;20029;-66
2022/05/08 00:04:42;;;;;;;15.40;9.30;;;;;;;;;;5029500;28;20096;-66
2022/05/08 00:07:08;;;;;;;15.30;10.07;;;;;;;;;;5029276;28;20470;-67
2022/05/08 00:09:34;;;;;;;13.80;9.43;;;;;;;;;;5028643;28;20030;-66
2022/05/08 00:12:00;;;;;;;16.73;9.43;;;;;;;;;;5028455;28;20042;-66
2022/05/08 00:14:26;;;;;;;14.35;9.20;;;;;;;;;;5029211;28;20075;-67
2022/05/08 00:16:52;;;;;;;15.00;10.10;;;;;;;;;;5029090;28;20459;-67
2022/05/08 00:19:18;;;;;;;14.70;9.00;;;;;;;;;;5028678;28;20033;-66
2022/05/08 00:21:44;;;;;;;16.77;8.68;;;;;;;;;;5029257;28;20032;-67
2022/05/08 00:24:10;;;;;;;14.00;9.30;;;;;;;;;;5029172;28;20148;-67
2022/05/08 00:26:36;;;;;;;17.17;9.38;;;;;;;;;;5029630;28;20044;-66
2022/05/08 00:29:03;;;;;;;13.82;9.18;;;;;;;;;;5032492;28;20475;-66
2022/05/08 00:31:29;;;;;;;14.85;10.60;;;;;;;;;;5032412;28;20405;-66
2022/05/08 00:33:55;;;;;;;15.63;10.23;;;;;;;;;;5033011;28;20497;-66
2022/05/08 00:36:22;;;;;;;12.05;9.10;;;;;;;;;;5015035;28;20337;-66
2022/05/08 00:38:48;;;;;;;15.60;10.77;;;;;;;;;;5014743;28;20032;-67
2022/05/08 00:41:14;;;;;;;14.10;9.32;;;;;;;;;;5032381;28;20017;-66
2022/05/08 00:43:40;;;;;;;15.00;10.02;;;;;;;;;;5028835;28;20386;-67
2022/05/08 00:46:07;;;;;;;17.23;10.48;;;;;;;;;;5014744;28;20267;-67
2022/05/08 00:48:34;;;;;;;19.63;9.70;;;;;;;;;;5032543;28;20017;-67
2022/05/08 00:51:01;;;;;;;16.92;8.90;;;;;;;;;;5032408;28;20346;-67
2022/05/08 00:53:30;;;;;;;13.30;8.85;;;;;;;;;;5032046;28;20068;-67
2022/05/08 00:55:57;;;;;;;15.98;8.70;;;;;;;;;;5033020;28;20022;-67
2022/05/08 00:58:23;;;;;;;10.77;8.18;;;;;;;;;;5031320;28;20025;-67
2022/05/08 01:00:50;;;;;;;15.07;9.65;;;;;;;;;;5031941;28;20467;-66
2022/05/08 01:03:16;;;;;;;20.10;9.27;;;;;;;;;;5032179;28;20026;-66
2022/05/08 01:05:42;;;;;;;13.27;9.13;;;;;;;;;;5032596;28;20017;-67
2022/05/08 01:08:12;;;;;;;14.73;8.98;;;;;;;;;;5032567;28;20025;-67
2022/05/08 01:10:38;;;;;;;13.75;8.52;;;;;;;;;;5034299;28;20079;-67
2022/05/08 01:13:05;;;;;;;12.55;8.68;;;;;;;;;;5013205;28;20410;-67
2022/05/08 01:15:39;;;;;;;14.50;9.30;;;;;;;;;;5032442;28;20029;-66
2022/05/08 01:18:05;;;;;;;13.73;8.50;;;;;;;;;;5032501;28;20021;-67
2022/05/08 01:20:31;;;;;;;13.95;8.88;;;;;;;;;;5031578;28;20080;-66
2022/05/08 01:22:57;;;;;;;14.85;8.80;;;;;;;;;;5032580;28;20018;-66
2022/05/08 01:25:23;;;;;;;13.75;8.40;;;;;;;;;;5032072;28;20037;-66
2022/05/08 01:27:49;;;;;;;14.45;9.02;;;;;;;;;;5031062;28;20441;-67
2022/05/08 01:30:15;;;;;;;14.68;9.15;;;;;;;;;;5031729;28;20102;-67
2022/05/08 01:32:41;;;;;;;13.95;8.75;;;;;;;;;;5032226;28;20133;-68
2022/05/08 01:35:08;;;;;;;12.98;8.20;;;;;;;;;;5011230;28;20058;-67
2022/05/08 01:37:34;;;;;;;14.73;8.68;;;;;;;;;;5031439;28;20035;-67
2022/05/08 01:40:00;;;;;;;16.92;8.05;;;;;;;;;;5031568;28;20506;-67
2022/05/08 01:42:27;;;;;;;12.35;8.75;;;;;;;;;;5012576;28;20057;-67
2022/05/08 01:44:53;;;;;;;12.57;8.80;;;;;;;;;;5046484;28;20026;-66
2022/05/08 01:50:04;;;;;;;15.82;9.27;;;;;;;;;;5031452;28;20035;-67
2022/05/08 01:52:30;;;;;;;14.02;9.35;;;;;;;;;;5031376;28;20116;-66
2022/05/08 01:54:56;;;;;;;12.50;9.45;;;;;;;;;;5031165;28;20025;-66
2022/05/08 01:57:22;;;;;;;15.35;9.98;;;;;;;;;;5031491;28;20391;-66
2022/05/08 01:59:48;;;;;;;16.17;8.57;;;;;;;;;;5030624;28;20102;-67
2022/05/08 02:02:14;;;;;;;14.23;9.35;;;;;;;;;;5031186;28;20382;-66
2022/05/08 02:04:40;;;;;;;16.13;9.20;;;;;;;;;;5031078;28;20518;-67
2022/05/08 02:07:06;;;;;;;14.02;9.10;;;;;;;;;;5031245;28;20482;-67
2022/05/08 02:09:32;;;;;;;12.15;8.55;;;;;;;;;;5033307;28;20025;-67
2022/05/08 02:11:58;;;;;;;14.75;8.75;;;;;;;;;;5030659;28;20108;-67
2022/05/08 02:14:24;;;;;;;15.68;9.40;;;;;;;;;;5012281;28;20043;-66
2022/05/08 02:16:50;;;;;;;13.52;9.07;;;;;;;;;;5013259;28;20108;-67
2022/05/08 02:19:17;;;;;;;15.32;9.02;;;;;;;;;;5029923;28;20025;-68
2022/05/08 02:21:43;;;;;;;18.52;9.18;;;;;;;;;;5030802;28;20378;-67
2022/05/08 02:24:09;;;;;;;12.27;8.63;;;;;;;;;;5009540;28;20121;-67
2022/05/08 02:26:35;;;;;;;18.25;9.98;;;;;;;;;;5029686;28;20049;-68
2022/05/08 02:29:01;;;;;;;15.27;9.77;;;;;;;;;;5029442;28;20072;-66
2022/05/08 02:31:27;;;;;;;12.40;8.40;;;;;;;;;;5030603;28;20025;-67
2022/05/08 02:33:53;;;;;;;11.27;8.02;;;;;;;;;;5030661;28;20565;-66
2022/05/08 02:36:19;;;;;;;13.02;8.25;;;;;;;;;;5009631;28;20459;-67
2022/05/08 02:38:45;;;;;;;13.65;8.95;;;;;;;;;;5030685;28;20029;-64
2022/05/08 02:41:11;;;;;;;13.32;8.80;;;;;;;;;;5009159;28;20022;-67
2022/05/08 02:43:37;;;;;;;12.10;8.50;;;;;;;;;;5028611;28;20040;-66
2022/05/08 02:46:03;;;;;;;12.40;8.65;;;;;;;;;;5030641;28;20029;-67
2022/05/08 02:48:29;;;;;;;12.57;8.05;;;;;;;;;;5029958;28;20051;-67
2022/05/08 02:50:55;;;;;;;13.93;9.10;;;;;;;;;;5029861;28;20463;-67
2022/05/08 02:53:21;;;;;;;14.88;8.23;;;;;;;;;;5025489;28;20033;-66
2022/05/08 02:58:35;;;;;;;13.15;8.85;;;;;;;;;;5029556;28;20045;-67
2022/05/08 03:01:02;;;;;;;13.40;8.63;;;;;;;;;;5029808;28;20103;-67
2022/05/08 03:03:28;;;;;;;12.68;8.27;;;;;;;;;;5030031;28;20025;-66
2022/05/08 03:05:54;;;;;;;16.33;8.23;;;;;;;;;;5030476;28;20090;-67
2022/05/08 03:08:20;;;;;;;11.90;8.43;;;;;;;;;;5029712;28;20021;-66
2022/05/08 03:13:36;;;;;;;15.02;9.30;;;;;;;;;;5029065;28;20127;-66
2022/05/08 03:16:03;;;;;;;14.95;10.23;;;;;;;;;;5030562;28;20022;-67
2022/05/08 03:18:29;;;;;;;16.42;9.52;;;;;;;;;;5029740;28;20076;-67
2022/05/08 03:20:55;;;;;;;13.07;8.90;;;;;;;;;;5029714;28;20037;-67
2022/05/08 03:23:21;;;;;;;14.52;8.85;;;;;;;;;;5029844;28;20021;-67
2022/05/08 03:25:47;;;;;;;12.90;8.50;;;;;;;;;;5029290;28;20053;-66
2022/05/08 03:28:14;;;;;;;17.27;10.05;;;;;;;;;;5008540;28;20068;-67
2022/05/08 03:30:40;;;;;;;14.82;9.82;;;;;;;;;;5027832;28;20471;-66
2022/05/08 03:33:08;;;;;;;13.30;9.30;;;;;;;;;;5029881;28;20037;-67
2022/05/08 03:35:34;;;;;;;15.15;9.35;;;;;;;;;;5029428;28;20494;-66
2022/05/08 03:38:00;;;;;;;15.32;9.02;;;;;;;;;;5011845;28;20040;-67
2022/05/08 03:40:27;;;;;;;14.20;9.93;;;;;;;;;;5011035;28;20057;-67
2022/05/08 03:42:55;;;;;;;12.15;9.15;;;;;;;;;;5029936;28;20021;-66
2022/05/08 03:45:22;;;;;;;11.80;8.90;;;;;;;;;;5028865;28;20054;-67
2022/05/08 03:47:51;;;;;;;15.95;8.90;;;;;;;;;;5008572;28;20073;-67
2022/05/08 03:50:18;;;;;;;14.90;9.90;;;;;;;;;;5025195;28;20033;-67
2022/05/08 03:52:44;;;;;;;17.67;10.30;;;;;;;;;;5029137;28;20061;-67
2022/05/08 03:55:11;;;;;;;13.48;9.38;;;;;;;;;;5029164;28;20053;-67
2022/05/08 03:57:37;;;;;;;15.60;9.90;;;;;;;;;;5029289;28;20021;-66
2022/05/08 04:00:04;;;;;;;15.52;8.15;;;;;;;;;;5023637;28;20025;-67
2022/05/08 04:02:30;;;;;;;12.80;8.70;;;;;;;;;;5031842;28;20029;-68
2022/05/08 04:04:56;;;;;;;12.57;8.60;;;;;;;;;;5033306;28;20021;-66
2022/05/08 04:07:22;;;;;;;14.23;8.88;;;;;;;;;;5032928;28;20030;-66
2022/05/08 04:09:48;;;;;;;14.13;8.60;;;;;;;;;;5037079;28;20033;-67
2022/05/08 04:12:14;;;;;;;13.38;8.82;;;;;;;;;;5016050;28;20176;-66
2022/05/08 04:14:40;;;;;;;13.40;9.30;;;;;;;;;;5028511;28;20432;-66
2022/05/08 04:17:06;;;;;;;15.00;9.73;;;;;;;;;;5033560;28;20104;-67
2022/05/08 04:19:32;;;;;;;16.05;9.23;;;;;;;;;;5032813;28;20044;-66
2022/05/08 04:24:43;;;;;;;16.38;10.23;;;;;;;;;;5033590;28;20044;-67
2022/05/08 04:27:10;;;;;;;17.58;9.73;;;;;;;;;;5033358;28;20025;-66
2022/05/08 04:29:36;;;;;;;17.15;9.82;;;;;;;;;;5029642;28;20065;-66
2022/05/08 04:32:02;;;;;;;21.88;9.88;;;;;;;;;;5033271;28;20028;-67
2022/05/08 04:34:28;;;;;;;15.90;9.48;;;;;;;;;;5032605;28;20032;-67
2022/05/08 04:36:54;;;;;;;13.35;9.10;;;;;;;;;;5033052;28;20025;-66
2022/05/08 04:39:20;;;;;;;18.95;9.98;;;;;;;;;;5011524;28;20121;-66
2022/05/08 04:41:47;;;;;;;15.55;8.82;;;;;;;;;;5032483;28;20427;-66
2022/05/08 04:44:13;;;;;;;15.48;9.48;;;;;;;;;;5029929;28;20052;-67
2022/05/08 04:46:39;;;;;;;15.13;9.35;;;;;;;;;;5032588;28;20032;-66
2022/05/08 04:49:05;;;;;;;14.82;9.27;;;;;;;;;;5032226;28;20380;-66
2022/05/08 04:51:31;;;;;;;16.42;9.70;;;;;;;;;;5032850;28;20036;-67
2022/05/08 04:53:57;;;;;;;16.58;10.02;;;;;;;;;;5032624;28;20109;-66
2022/05/08 04:56:23;;;;;;;16.98;9.55;;;;;;;;;;5032754;28;20053;-67
2022/05/08 04:58:49;;;;;;;14.80;9.63;;;;;;;;;;5032599;28;20330;-67
2022/05/08 05:01:15;;;;;;;13.60;8.73;;;;;;;;;;5031467;28;20642;-66
2022/05/08 05:03:41;;;;;;;13.63;9.35;;;;;;;;;;5032281;28;20684;-66
2022/05/08 05:06:08;;;;;;;21.00;9.85;;;;;;;;;;5032623;28;20021;-67
2022/05/08 05:08:34;;;;;;;15.30;8.70;;;;;;;;;;5014690;28;20451;-66
2022/05/08 05:11:00;;;;;;;17.27;9.93;;;;;;;;;;5036401;28;20025;-67
2022/05/08 05:13:26;;;;;;;13.50;9.15;;;;;;;;;;5031840;28;20041;-67
2022/05/08 05:15:52;;;;;;;17.80;10.10;;;;;;;;;;5005912;28;20049;-66
2022/05/08 05:18:18;;;;;;;13.48;9.07;;;;;;;;;;5020441;28;20063;-67
2022/05/08 05:20:47;;;;;;;15.27;10.38;;;;;;;;;;5032424;28;20656;-66
2022/05/08 05:23:13;;;;;;;15.05;9.43;;;;;;;;;;5032224;28;20026;-67
2022/05/08 05:25:39;;;;;;;14.07;9.35;;;;;;;;;;5031782;28;20028;-66
2022/05/08 05:28:05;;;;;;;13.57;9.30;;;;;;;;;;5031934;28;20014;-67
2022/05/08 05:30:31;;;;;;;16.00;9.00;;;;;;;;;;5029989;28;20475;-67
2022/05/08 05:32:57;;;;;;;14.70;9.88;;;;;;;;;;5031474;28;20080;-67
2022/05/08 05:35:23;;;;;;;11.90;8.60;;;;;;;;;;5032193;28;20088;-66
2022/05/08 05:37:49;;;;;;;16.77;9.68;;;;;;;;;;5013853;28;20021;-66
2022/05/08 05:40:15;;;;;;;15.70;10.20;;;;;;;;;;5031614;28;20105;-66
2022/05/08 05:42:41;;;;;;;14.60;8.88;;;;;;;;;;5032503;28;20105;-66
2022/05/08 05:45:08;;;;;;;21.75;9.70;;;;;;;;;;5027535;28;20506;-67
2022/05/08 05:47:49;;;;;;;21.55;9.55;;;;;;;;;;5028613;28;20030;-66
2022/05/08 05:50:15;;;;;;;17.27;10.38;;;;;;;;;;5009685;28;20467;-66
2022/05/08 05:52:41;;;;;;;18.30;10.27;;;;;;;;;;5029523;28;20683;-66
2022/05/08 05:55:08;;;;;;;16.17;9.77;;;;;;;;;;5031173;28;20021;-67
2022/05/08 05:57:34;;;;;;;19.85;10.13;;;;;;;;;;5031563;28;20456;-66
2022/05/08 06:00:00;;;;;;;14.68;10.23;;;;;;;;;;5030002;28;20026;-66
2022/05/08 06:02:26;;;;;;;14.48;9.18;;;;;;;;;;5027717;28;20075;-66
2022/05/08 06:04:52;;;;;;;20.20;9.98;;;;;;;;;;5030887;28;20382;-67
2022/05/08 06:07:18;;;;;;;13.18;8.95;;;;;;;;;;5031625;28;20041;-66
2022/05/08 06:09:44;;;;;;;15.48;9.70;;;;;;;;;;5035968;28;20025;-66
2022/05/08 06:12:11;;;;;;;14.00;9.90;;;;;;;;;;5031306;28;20160;-66
2022/05/08 06:14:37;;;;;;;16.83;9.80;;;;;;;;;;5030530;28;20394;-67
2022/05/08 06:17:03;;;;;;;16.17;10.10;;;;;;;;;;5029927;28;20496;-66
2022/05/08 06:19:31;;;;;;;12.52;8.85;;;;;;;;;;5015221;28;20116;-66
2022/05/08 06:21:57;;;;;;;14.10;8.63;;;;;;;;;;5023442;28;20045;-67
2022/05/08 06:24:23;;;;;;;11.27;7.68;;;;;;;;;;5030144;28;20109;-66
2022/05/08 06:26:49;;;;;;;12.88;8.27;;;;;;;;;;5029440;28;20036;-67
2022/05/08 06:29:15;;;;;;;15.57;9.25;;;;;;;;;;5030620;28;20107;-67
2022/05/08 06:31:41;;;;;;;13.27;8.73;;;;;;;;;;5029652;28;20107;-66
2022/05/08 06:34:08;;;;;;;16.60;9.07;;;;;;;;;;5030884;28;20033;-67
2022/05/08 06:36:34;;;;;;;13.18;7.90;;;;;;;;;;5030319;28;20466;-67
2022/05/08 06:39:00;;;;;;;15.70;9.13;;;;;;;;;;5029782;28;20394;-66
2022/05/08 06:41:27;;;;;;;14.45;8.48;;;;;;;;;;5027578;28;20525;-67
2022/05/08 06:43:53;;;;;;;12.45;8.23;;;;;;;;;;5028829;28;20533;-67
2022/05/08 06:46:19;;;;;;;14.68;9.00;;;;;;;;;;5027255;28;20036;-67
2022/05/08 06:48:47;;;;;;;14.43;9.25;;;;;;;;;;5030351;28;20022;-66
2022/05/08 06:51:13;;;;;;;13.00;8.65;;;;;;;;;;5030837;28;20021;-67
2022/05/08 06:53:42;;;;;;;13.15;8.18;;;;;;;;;;5030481;28;20313;-66
2022/05/08 06:56:08;;;;;;;18.35;9.77;;;;;;;;;;5030750;28;20013;-67
2022/05/08 07:01:34;;;;;;;13.10;8.20;;;;;;;;;;5030823;28;20084;-67
2022/05/08 07:01:36;;;;;;;16.20;9.30;;;;;;;;;;5023320;28;20155;-66
2022/05/08 07:04:03;;;;;;;13.98;9.13;;;;;;;;;;5022510;28;20052;-66
2022/05/08 07:06:29;;;;;;;14.35;8.75;;;;;;;;;;5029953;28;20511;-66
2022/05/08 07:08:56;;;;;;;15.25;9.10;;;;;;;;;;5029486;28;20024;-67
2022/05/08 07:11:22;;;;;;;16.85;9.07;;;;;;;;;;5029948;28;20513;-67
2022/05/08 07:13:48;;;;;;;13.57;8.45;;;;;;;;;;5029257;28;20398;-66
2022/05/08 07:16:14;;;;;;;14.65;9.73;;;;;;;;;;5029457;28;20155;-66
2022/05/08 07:18:40;;;;;;;15.90;8.90;;;;;;;;;;5030106;28;20103;-67
2022/05/08 07:21:06;;;;;;;12.20;8.98;;;;;;;;;;5024964;28;20499;-67
2022/05/08 07:23:32;;;;;;;18.85;10.32;;;;;;;;;;5025119;28;20026;-67
2022/05/08 07:25:58;;;;;;;18.10;9.85;;;;;;;;;;5029680;28;20104;-66
2022/05/08 07:28:24;;;;;;;15.48;9.13;;;;;;;;;;5029617;28;20037;-67
2022/05/08 07:30:51;;;;;;;14.98;9.77;;;;;;;;;;5027986;28;20056;-67
2022/05/08 07:33:17;;;;;;;18.33;9.60;;;;;;;;;;5029961;28;20030;-67
2022/05/08 07:36:29;;;;;;;14.25;9.30;;;;;;;;;;5015377;28;20033;-67
2022/05/08 07:38:30;;;;;;;15.00;9.82;;;;;;;;;;5022007;28;20034;-67
2022/05/08 07:40:57;;;;;;;14.70;8.40;;;;;;;;;;5028840;28;20378;-67
2022/05/08 07:43:23;;;;;;;15.95;10.00;;;;;;;;;;5025175;28;20030;-66
2022/05/08 07:45:49;;;;;;;14.63;8.73;;;;;;;;;;5027480;28;20034;-66
2022/05/08 07:48:18;;;;;;;14.57;9.18;;;;;;;;;;5029754;28;20100;-66
2022/05/08 07:50:45;;;;;;;12.95;8.90;;;;;;;;;;5024238;28;20179;-67
2022/05/08 07:53:12;;;;;;;13.40;8.50;;;;;;;;;;5029369;28;20120;-67
2022/05/08 07:55:39;;;;;;;16.15;9.73;;;;;;;;;;5029464;28;20381;-68
2022/05/08 07:58:05;;;;;;;11.52;8.15;;;;;;;;;;5030011;28;20093;-67
2022/05/08 08:00:31;;;;;;;11.90;8.32;;;;;;;;;;5029201;28;20025;-66
2022/05/08 08:02:57;;;;;;;12.13;8.88;;;;;;;;;;5023299;28;20065;-67
2022/05/08 08:05:23;;;;;;;12.48;8.35;;;;;;;;;;5029663;28;20399;-67
2022/05/08 08:07:50;;;;;;;12.50;8.25;;;;;;;;;;5028992;28;20033;-66
2022/05/08 08:10:16;;;;;;;14.30;9.35;;;;;;;;;;5034904;28;20028;-67
2022/05/08 08:12:42;;;;;;;10.93;7.28;;;;;;;;;;5028445;28;20529;-67
2022/05/08 08:15:08;;;;;;;16.60;8.82;;;;;;;;;;5029444;28;20431;-67
2022/05/08 08:17:34;;;;;;;14.18;8.57;;;;;;;;;;5048951;23;20160;-65
2022/05/08 08:20:00;;;;;;;14.38;8.57;;;;;;;;;;5005571;28;20065;-65
2022/05/08 08:22:28;;;;;;;14.38;9.00;;;;;;;;;;5008286;28;20653;-65
2022/05/08 08:24:54;;;;;;;12.50;9.23;;;;;;;;;;5005817;28;20034;-65
2022/05/08 08:27:20;;;;;;;17.27;8.43;;;;;;;;;;5008340;28;20030;-65
2022/05/08 08:29:47;;;;;;;16.30;8.00;;;;;;;;;;5008851;28;20033;-65
2022/05/08 08:32:13;;;;;;;11.43;8.15;;;;;;;;;;5007225;28;20041;-67
2022/05/08 08:34:39;;;;;;;20.60;8.80;;;;;;;;;;5008744;28;20026;-65
2022/05/08 08:37:05;;;;;;;14.77;9.13;;;;;;;;;;5009219;28;20113;-65
2022/05/08 08:39:31;;;;;;;13.65;9.23;;;;;;;;;;5009211;28;20029;-65
2022/05/08 08:42:08;;;;;;;14.60;9.40;;;;;;;;;;5008764;28;20566;-65
2022/05/08 08:50:05;;;;;;;16.60;9.77;;;;;;;;;;5012539;28;20403;-65
2022/05/08 08:52:32;;;;;;;19.60;11.25;;;;;;;;;;5010983;28;20487;-65
2022/05/08 08:54:59;;;;;;;17.02;11.50;;;;;;;;;;5012376;28;20479;-65
2022/05/08 08:57:25;;;;;;;20.27;10.30;;;;;;;;;;5012141;28;20034;-65
2022/05/08 08:59:51;;;;;;;16.13;9.60;;;;;;;;;;5011786;28;20030;-65
2022/05/08 09:02:18;;;;;;;17.15;11.65;;;;;;;;;;5011846;28;20033;-65
2022/05/08 09:04:49;;;;;;;23.95;11.13;;;;;;;;;;5012818;28;20036;-65
2022/05/08 09:07:34;;;;;;;18.63;10.40;;;;;;;;;;5013602;28;20025;-66
2022/05/08 09:10:19;;;;;;;15.38;9.65;;;;;;;;;;5012485;28;20030;-65
2022/05/08 09:13:06;;;;;;;21.52;9.30;;;;;;;;;;5010553;28;20119;-67
2022/05/08 09:15:33;;;;;;;22.08;11.52;;;;;;;;;;5012654;28;20030;-67
2022/05/08 09:18:09;;;;;;;16.85;10.85;;;;;;;;;;5018310;28;20049;-67
2022/05/08 09:20:36;;;;;;;16.67;10.75;;;;;;;;;;5029184;28;20109;-67
2022/05/08 09:23:06;;;;;;;18.58;10.68;;;;;;;;;;5040700;28;20048;-66
2022/05/08 09:25:32;;;;;;;;;;;;;;;;;;5032761;28;20032;-66
2022/05/08 09:28:01;;;;;;;18.10;10.63;;;;;;;;;;5031427;28;19905;-66
2022/05/08 09:30:27;;;;;;;16.48;11.52;;;;;;;;;;5031317;28;20025;-66
2022/05/08 09:32:53;;;;;;;17.15;10.10;;;;;;;;;;5030768;28;20042;-66
2022/05/08 09:35:19;;;;;;;19.17;11.15;;;;;;;;;;5026660;28;20061;-66
2022/05/08 09:37:52;;;;;;;17.98;12.20;;;;;;;;;;5028948;28;20102;-66
2022/05/08 09:40:19;;;;;;;14.43;9.23;;;;;;;;;;5031353;28;20071;-66
2022/05/08 09:42:46;;;;;;;14.68;9.98;;;;;;;;;;5029488;28;20138;-63
2022/05/08 09:45:13;;;;;;;38.17;15.07;;;;;;;;;;5024391;28;20026;-73
2022/05/08 09:47:43;;;;;;;18.15;10.40;;;;;;;;;;5028046;28;20054;-74
2022/05/08 09:50:09;;;;;;;;;;;;;;;;;;5011388;28;20044;-73
2022/05/08 09:52:38;;;;;;;15.65;9.55;;;;;;;;;;5027164;28;20019;-81
2022/05/08 09:55:05;;;;;;;24.05;12.25;;;;;;;;;;5029791;28;20040;-80
2022/05/08 09:57:33;;;;;;;21.55;10.77;;;;;;;;;;5031788;28;20024;-82
2022/05/08 09:59:59;;;;;;;24.38;11.02;;;;;;;;;;5031266;28;20498;-79
2022/05/08 10:02:25;;;;;;;17.27;10.00;;;;;;;;;;5029619;28;20537;-80
2022/05/08 10:04:52;;;;;;;17.83;11.15;;;;;;;;;;5031561;28;20083;-76
2022/05/08 10:07:19;;;;;;;15.52;9.90;;;;;;;;;;5037934;28;20032;-77
2022/05/08 10:15:18;;;;;;;18.13;10.27;;;;;;;;;;5023289;28;20450;-81
2022/05/08 10:17:45;;;;;;;17.42;10.55;;;;;;;;;;5027919;28;20404;-82
2022/05/08 10:20:11;;;;;;;14.07;9.85;;;;;;;;;;5011020;28;20085;-80
2022/05/08 10:22:48;;;;;;;19.45;10.57;;;;;;;;;;5003651;28;20022;-81
2022/05/08 10:25:15;;;;;;;19.52;8.48;;;;;;;;;;5004392;28;20104;-82
2022/05/08 10:27:43;;;;;;;13.63;8.40;;;;;;;;;;5011862;28;20068;-81
2022/05/08 10:30:09;;;;;;;15.75;8.85;;;;;;;;;;5010109;28;20026;-80
2022/05/08 10:32:35;;;;;;;17.23;9.70;;;;;;;;;;5010076;28;20301;-80
2022/05/08 10:35:04;;;;;;;16.88;9.52;;;;;;;;;;5011332;28;20018;-81
2022/05/08 10:37:30;;;;;;;11.88;7.82;;;;;;;;;;5010819;28;20360;-80
2022/05/08 10:39:57;;;;;;;16.00;7.65;;;;;;;;;;5001884;28;20026;-80
2022/05/08 10:42:30;;;;;;;9.18;6.97;;;;;;;;;;5011152;28;20057;-80
2022/05/08 10:44:57;;;;;;;11.75;7.40;;;;;;;;;;5010630;28;20080;-80
2022/05/08 10:47:40;;;;;;;11.50;7.90;;;;;;;;;;5010266;28;20041;-80
2022/05/08 10:50:13;;;;;;;12.48;7.43;;;;;;;;;;5010059;28;20475;-80
2022/05/08 10:52:43;;;;;;;10.10;7.30;;;;;;;;;;5010811;28;20045;-80
2022/05/08 10:55:15;;;;;;;13.50;7.63;;;;;;;;;;5010735;28;20050;-79
2022/05/08 10:57:41;;;;;;;9.35;7.28;;;;;;;;;;5010868;28;20033;-80
2022/05/08 11:00:09;;;;;;;12.85;7.57;;;;;;;;;;5009783;28;20024;-80
2022/05/08 11:03:01;;;;;;;16.83;8.23;;;;;;;;;;5009661;28;20535;-81
2022/05/08 11:05:31;;;;;;;12.80;7.38;;;;;;;;;;5014433;28;20034;-80
2022/05/08 11:08:20;;;;;;;8.73;7.22;;;;;;;;;;4993991;28;20022;-80
2022/05/08 11:10:56;;;;;;;16.08;8.32;;;;;;;;;;4990989;28;20041;-80
2022/05/08 11:13:22;;;;;;;16.48;9.20;;;;;;;;;;5010355;28;20026;-79
2022/05/08 11:15:48;;;;;;;10.18;6.80;;;;;;;;;;5010552;28;20052;-79
2022/05/08 11:18:15;;;;;;;14.98;8.68;;;;;;;;;;5009483;28;20026;-81
2022/05/08 11:20:44;;;;;;;14.02;8.07;;;;;;;;;;5008900;28;20053;-79
2022/05/08 11:23:14;;;;;;;13.45;8.15;;;;;;;;;;5010630;28;20402;-79
2022/05/08 11:25:40;;;;;;;12.45;7.95;;;;;;;;;;5009483;28;20026;-80
2022/05/08 11:28:14;;;;;;;13.77;8.80;;;;;;;;;;5010556;28;20061;-78
2022/05/08 11:39:51;;;;;;;12.27;7.30;;;;;;;;;;4969017;28;20041;-79
2022/05/08 11:42:17;;;;;;;10.15;7.55;;;;;;;;;;4968008;28;20032;-79
2022/05/08 11:44:43;;;;;;;11.02;7.65;;;;;;;;;;4967975;28;20041;-79
2022/05/08 11:47:13;;;;;;;13.65;7.90;;;;;;;;;;4970043;28;20515;-79
2022/05/08 11:49:44;;;;;;;16.55;8.73;;;;;;;;;;4969907;28;20035;-79
2022/05/08 11:52:19;;;;;;;11.68;8.05;;;;;;;;;;4970665;28;20026;-79
2022/05/08 11:54:58;;;;;;;14.25;9.00;;;;;;;;;;4970490;28;20038;-79
2022/05/08 11:57:25;;;;;;;13.50;8.23;;;;;;;;;;4970678;28;20174;-79
2022/05/08 11:59:52;;;;;;;15.48;8.85;;;;;;;;;;4953794;28;20098;-78
2022/05/08 12:02:18;;;;;;;13.45;9.02;;;;;;;;;;4968220;28;20015;-79
2022/05/08 12:04:55;;;;;;;15.00;8.85;;;;;;;;;;4988574;28;20049;-79
2022/05/08 12:07:21;;;;;;;10.93;7.90;;;;;;;;;;4984841;28;20026;-79
2022/05/08 12:09:47;;;;;;;12.65;8.82;;;;;;;;;;4983580;28;20030;-79
2022/05/08 12:12:27;;;;;;;14.02;9.13;;;;;;;;;;5001268;28;20026;-78
2022/05/08 12:15:06;;;;;;;12.70;8.75;;;;;;;;;;4984138;28;20031;-79
2022/05/08 12:17:45;;;;;;;11.82;7.72;;;;;;;;;;5007026;28;20499;-79
2022/05/08 12:20:13;;;;;;;11.73;7.85;;;;;;;;;;5009346;28;20036;-78
2022/05/08 12:22:39;;;;;;;10.52;8.00;;;;;;;;;;5026795;28;20052;-79
2022/05/08 12:25:06;;;;;;;16.27;7.78;;;;;;;;;;5030529;28;20512;-79
2022/05/08 12:27:33;;;;;;;14.02;7.97;;;;;;;;;;5039811;28;20029;-79
2022/05/08 12:29:59;;;;;;;13.82;8.02;;;;;;;;;;5032667;28;20049;-79
2022/05/08 12:32:25;;;;;;;12.35;8.65;;;;;;;;;;5032430;28;20030;-79
2022/05/08 12:34:53;;;;;;;11.82;8.35;;;;;;;;;;5031978;28;20052;-79
2022/05/08 12:37:20;;;;;;;15.35;8.57;;;;;;;;;;5032198;28;20041;-79
2022/05/08 12:39:46;;;;;;;12.80;8.63;;;;;;;;;;5014165;28;20017;-80
2022/05/08 12:42:13;;;;;;;12.30;7.55;;;;;;;;;;5014853;28;20053;-79
2022/05/08 12:44:39;;;;;;;12.23;7.60;;;;;;;;;;5014679;28;20029;-79
2022/05/08 12:47:08;;;;;;;15.77;7.55;;;;;;;;;;5032051;28;20029;-79
2022/05/08 12:49:35;;;;;;;10.80;7.50;;;;;;;;;;5010046;28;20034;-79
2022/05/08 12:52:01;;;;;;;11.85;7.55;;;;;;;;;;5029136;28;20087;-79
2022/05/08 12:54:27;;;;;;;12.35;8.43;;;;;;;;;;5032592;28;20026;-79
2022/05/08 12:56:54;;;;;;;14.40;8.07;;;;;;;;;;5040435;28;20025;-79
2022/05/08 13:02:04;;;;;;;9.40;7.40;;;;;;;;;;5033154;28;20040;-79
2022/05/08 13:04:30;;;;;;;12.48;7.88;;;;;;;;;;5010900;28;20033;-79
2022/05/08 13:06:57;;;;;;;9.82;7.68;;;;;;;;;;5030190;28;20053;-79
2022/05/08 13:09:23;;;;;;;17.25;7.68;;;;;;;;;;5014147;28;20033;-79
2022/05/08 13:11:49;;;;;;;10.48;7.97;;;;;;;;;;5022775;28;20026;-79
2022/05/08 13:14:15;;;;;;;10.85;7.22;;;;;;;;;;5031507;28;20033;-79
2022/05/08 13:16:41;;;;;;;13.63;7.15;;;;;;;;;;5031576;28;20021;-79
2022/05/08 13:19:07;;;;;;;10.40;8.10;;;;;;;;;;5030318;28;20114;-79
2022/05/08 13:21:36;;;;;;;9.80;7.65;;;;;;;;;;5014010;28;20096;-79
2022/05/08 13:24:02;;;;;;;14.55;8.52;;;;;;;;;;5031727;28;20029;-78
2022/05/08 13:26:28;;;;;;;16.33;10.07;;;;;;;;;;5031212;28;20033;-79
2022/05/08 13:28:54;;;;;;;16.13;9.75;;;;;;;;;;5031503;28;20044;-80
2022/05/08 13:31:20;;;;;;;13.85;10.23;;;;;;;;;;5013707;28;20029;-78
2022/05/08 13:33:47;;;;;;;15.55;10.88;;;;;;;;;;5014758;28;20095;-77
2022/05/08 13:42:27;;;;;;;16.73;10.30;;;;;;;;;;5034225;28;20040;-77
2022/05/08 13:44:55;;;;;;;12.48;9.50;;;;;;;;;;5011384;28;20026;-78
2022/05/08 13:47:22;;;;;;;17.15;10.75;;;;;;;;;;5013052;28;20014;-77
2022/05/08 13:49:52;;;;;;;17.40;11.57;;;;;;;;;;5026779;28;20033;-77
2022/05/08 13:52:18;;;;;;;17.25;11.85;;;;;;;;;;5028733;28;20026;-77
2022/05/08 13:54:44;;;;;;;15.75;10.85;;;;;;;;;;5008095;28;20040;-77
